sensor_id;sensor_type;location;lat;lon;timestamp;P1;durP1;ratioP1;P2;durP2;ratioP2
31906;SDS011;18455;50.858;13.662;2022-11-04T00:01:01;21.73;;;11.97;;
31906;SDS011;18455;50.858;13.662;2022-11-04T00:06:03;16.50;;;12.20;;
31906;SDS011;18455;50.858;13.662;2022-11-04T00:11:04;15.77;;;11.60;;
31906;SDS011;18455;50.858;13.662;2022-11-04T00:16:22;14.13;;;12.50;;
31906;SDS011;18455;50.858;13.662;2022-11-04T00:21:41;14.60;;;11.07;;
31906;SDS011;18455;50.858;13.662;2022-11-04T00:27:00;16.67;;;12.40;;
31906;SDS011;18455;50.858;13.662;2022-11-04T00:32:19;18.80;;;13.37;;
31906;SDS011;18455;50.858;13.662;2022-11-04T00:37:38;17.50;;;11.33;;
31906;SDS011;18455;50.858;13.662;2022-11-04T00:42:41;20.37;;;16.60;;
31906;SDS011;18455;50.858;13.662;2022-11-04T00:47:43;22.40;;;15.20;;
31906;SDS011;18455;50.858;13.662;2022-11-04T00:52:43;23.60;;;17.73;;
31906;SDS011;18455;50.858;13.662;2022-11-04T00:57:44;23.23;;;19.23;;
31906;SDS011;18455;50.858;13.662;2022-11-04T01:02:44;21.03;;;16.03;;
31906;SDS011;18455;50.858;13.662;2022-11-04T01:07:45;23.93;;;12.87;;
31906;SDS011;18455;50.858;13.662;2022-11-04T01:12:45;21.50;;;13.13;;
31906;SDS011;18455;50.858;13.662;2022-11-04T01:17:46;22.37;;;14.97;;
31906;SDS011;18455;50.858;13.662;2022-11-04T01:22:46;20.70;;;12.17;;
31906;SDS011;18455;50.858;13.662;2022-11-04T01:27:46;19.83;;;12.10;;
31906;SDS011;18455;50.858;13.662;2022-11-04T01:32:47;19.17;;;14.93;;
31906;SDS011;18455;50.858;13.662;2022-11-04T01:37:47;21.33;;;14.47;;
31906;SDS011;18455;50.858;13.662;2022-11-04T01:42:47;19.70;;;12.83;;
31906;SDS011;18455;50.858;13.662;2022-11-04T01:47:49;23.23;;;16.23;;
31906;SDS011;18455;50.858;13.662;2022-11-04T01:53:14;26.77;;;18.10;;
31906;SDS011;18455;50.858;13.662;2022-11-04T01:58:16;24.30;;;17.43;;
31906;SDS011;18455;50.858;13.662;2022-11-04T02:03:19;21.67;;;15.73;;
31906;SDS011;18455;50.858;13.662;2022-11-04T02:08:40;22.93;;;16.37;;
31906;SDS011;18455;50.858;13.662;2022-11-04T02:13:40;22.83;;;15.80;;
31906;SDS011;18455;50.858;13.662;2022-11-04T02:29:26;29.10;;;19.23;;
31906;SDS011;18455;50.858;13.662;2022-11-04T02:34:51;31.47;;;22.17;;
31906;SDS011;18455;50.858;13.662;2022-11-04T02:40:00;33.80;;;21.17;;
31906;SDS011;18455;50.858;13.662;2022-11-04T02:45:09;24.73;;;16.00;;
31906;SDS011;18455;50.858;13.662;2022-11-04T02:50:16;30.93;;;15.53;;
31906;SDS011;18455;50.858;13.662;2022-11-04T02:55:46;25.13;;;18.43;;
31906;SDS011;18455;50.858;13.662;2022-11-04T03:00:48;24.17;;;17.53;;
31906;SDS011;18455;50.858;13.662;2022-11-04T03:05:50;25.07;;;18.07;;
31906;SDS011;18455;50.858;13.662;2022-11-04T03:10:53;33.63;;;23.47;;
31906;SDS011;18455;50.858;13.662;2022-11-04T03:15:56;33.70;;;19.93;;
31906;SDS011;18455;50.858;13.662;2022-11-04T03:20:59;44.00;;;29.40;;
31906;SDS011;18455;50.858;13.662;2022-11-04T03:26:06;52.40;;;33.47;;
31906;SDS011;18455;50.858;13.662;2022-11-04T03:31:11;53.97;;;32.93;;
31906;SDS011;18455;50.858;13.662;2022-11-04T03:36:35;52.00;;;33.40;;
31906;SDS011;18455;50.858;13.662;2022-11-04T03:41:37;49.83;;;32.77;;
31906;SDS011;18455;50.858;13.662;2022-11-04T03:46:44;48.77;;;30.60;;
31906;SDS011;18455;50.858;13.662;2022-11-04T03:51:44;45.53;;;29.70;;
31906;SDS011;18455;50.858;13.662;2022-11-04T04:02:26;45.27;;;29.50;;
31906;SDS011;18455;50.858;13.662;2022-11-04T04:07:36;52.03;;;32.63;;
31906;SDS011;18455;50.858;13.662;2022-11-04T04:12:39;57.63;;;35.53;;
31906;SDS011;18455;50.858;13.662;2022-11-04T04:17:49;56.40;;;34.17;;
31906;SDS011;18455;50.858;13.662;2022-11-04T04:23:00;54.63;;;34.03;;
31906;SDS011;18455;50.858;13.662;2022-11-04T04:28:28;56.60;;;37.17;;
31906;SDS011;18455;50.858;13.662;2022-11-04T04:33:29;62.57;;;36.73;;
31906;SDS011;18455;50.858;13.662;2022-11-04T04:38:31;58.97;;;36.67;;
31906;SDS011;18455;50.858;13.662;2022-11-04T04:43:58;52.10;;;34.53;;
31906;SDS011;18455;50.858;13.662;2022-11-04T04:49:17;58.60;;;35.27;;
31906;SDS011;18455;50.858;13.662;2022-11-04T04:54:17;57.63;;;35.33;;
31906;SDS011;18455;50.858;13.662;2022-11-04T04:59:18;60.40;;;37.00;;
31906;SDS011;18455;50.858;13.662;2022-11-04T05:04:18;57.40;;;35.90;;
31906;SDS011;18455;50.858;13.662;2022-11-04T05:09:18;58.07;;;34.40;;
31906;SDS011;18455;50.858;13.662;2022-11-04T05:14:19;57.17;;;34.93;;
31906;SDS011;18455;50.858;13.662;2022-11-04T05:19:19;59.53;;;35.73;;
31906;SDS011;18455;50.858;13.662;2022-11-04T05:24:19;53.83;;;34.57;;
31906;SDS011;18455;50.858;13.662;2022-11-04T05:29:20;53.27;;;32.67;;
31906;SDS011;18455;50.858;13.662;2022-11-04T05:34:20;57.03;;;32.60;;
31906;SDS011;18455;50.858;13.662;2022-11-04T05:39:20;59.80;;;34.13;;
31906;SDS011;18455;50.858;13.662;2022-11-04T05:44:21;46.17;;;26.77;;
31906;SDS011;18455;50.858;13.662;2022-11-04T05:49:21;45.73;;;28.47;;
31906;SDS011;18455;50.858;13.662;2022-11-04T05:54:22;31.40;;;19.87;;
31906;SDS011;18455;50.858;13.662;2022-11-04T05:59:22;26.87;;;18.07;;
31906;SDS011;18455;50.858;13.662;2022-11-04T06:04:22;28.03;;;16.87;;
31906;SDS011;18455;50.858;13.662;2022-11-04T06:09:23;22.77;;;14.43;;
31906;SDS011;18455;50.858;13.662;2022-11-04T06:14:39;21.93;;;14.87;;
31906;SDS011;18455;50.858;13.662;2022-11-04T06:19:40;20.17;;;13.90;;
31906;SDS011;18455;50.858;13.662;2022-11-04T06:24:41;22.67;;;14.50;;
31906;SDS011;18455;50.858;13.662;2022-11-04T06:29:41;20.00;;;12.97;;
31906;SDS011;18455;50.858;13.662;2022-11-04T06:34:42;18.50;;;13.00;;
31906;SDS011;18455;50.858;13.662;2022-11-04T06:39:42;20.40;;;12.63;;
31906;SDS011;18455;50.858;13.662;2022-11-04T06:44:43;19.20;;;12.20;;
31906;SDS011;18455;50.858;13.662;2022-11-04T06:49:43;18.63;;;12.60;;
31906;SDS011;18455;50.858;13.662;2022-11-04T06:54:44;20.13;;;12.07;;
31906;SDS011;18455;50.858;13.662;2022-11-04T06:59:45;18.70;;;12.83;;
31906;SDS011;18455;50.858;13.662;2022-11-04T07:04:45;17.30;;;11.97;;
31906;SDS011;18455;50.858;13.662;2022-11-04T07:09:46;15.57;;;9.87;;
31906;SDS011;18455;50.858;13.662;2022-11-04T07:14:46;16.63;;;10.30;;
31906;SDS011;18455;50.858;13.662;2022-11-04T07:19:47;16.47;;;10.00;;
31906;SDS011;18455;50.858;13.662;2022-11-04T07:24:47;14.80;;;9.83;;
31906;SDS011;18455;50.858;13.662;2022-11-04T07:29:48;13.37;;;9.50;;
31906;SDS011;18455;50.858;13.662;2022-11-04T07:34:48;13.70;;;9.37;;
31906;SDS011;18455;50.858;13.662;2022-11-04T07:39:49;10.87;;;8.27;;
31906;SDS011;18455;50.858;13.662;2022-11-04T07:44:49;12.97;;;9.43;;
31906;SDS011;18455;50.858;13.662;2022-11-04T07:49:49;13.87;;;9.50;;
31906;SDS011;18455;50.858;13.662;2022-11-04T07:54:50;14.27;;;9.50;;
31906;SDS011;18455;50.858;13.662;2022-11-04T07:59:50;13.47;;;9.83;;
31906;SDS011;18455;50.858;13.662;2022-11-04T08:04:51;15.57;;;9.97;;
31906;SDS011;18455;50.858;13.662;2022-11-04T08:09:51;13.67;;;9.27;;
31906;SDS011;18455;50.858;13.662;2022-11-04T08:14:51;12.47;;;8.47;;
31906;SDS011;18455;50.858;13.662;2022-11-04T08:19:52;12.37;;;8.57;;
31906;SDS011;18455;50.858;13.662;2022-11-04T08:24:52;13.07;;;7.83;;
31906;SDS011;18455;50.858;13.662;2022-11-04T08:29:53;24.97;;;10.13;;
31906;SDS011;18455;50.858;13.662;2022-11-04T08:34:53;14.57;;;9.60;;
31906;SDS011;18455;50.858;13.662;2022-11-04T08:39:53;14.53;;;9.00;;
31906;SDS011;18455;50.858;13.662;2022-11-04T08:44:54;12.47;;;8.60;;
31906;SDS011;18455;50.858;13.662;2022-11-04T08:49:54;15.33;;;9.77;;
31906;SDS011;18455;50.858;13.662;2022-11-04T08:54:55;13.33;;;9.20;;
31906;SDS011;18455;50.858;13.662;2022-11-04T08:59:55;16.93;;;10.20;;
31906;SDS011;18455;50.858;13.662;2022-11-04T09:04:55;15.70;;;10.33;;
31906;SDS011;18455;50.858;13.662;2022-11-04T09:09:56;15.23;;;10.20;;
31906;SDS011;18455;50.858;13.662;2022-11-04T09:14:56;16.27;;;10.10;;
31906;SDS011;18455;50.858;13.662;2022-11-04T09:19:57;17.87;;;11.27;;
31906;SDS011;18455;50.858;13.662;2022-11-04T09:24:57;15.53;;;9.83;;
31906;SDS011;18455;50.858;13.662;2022-11-04T09:29:58;16.77;;;10.93;;
31906;SDS011;18455;50.858;13.662;2022-11-04T09:34:58;15.47;;;10.43;;
31906;SDS011;18455;50.858;13.662;2022-11-04T09:39:58;15.63;;;11.50;;
31906;SDS011;18455;50.858;13.662;2022-11-04T09:45:00;14.40;;;10.87;;
31906;SDS011;18455;50.858;13.662;2022-11-04T09:50:04;14.23;;;9.30;;
31906;SDS011;18455;50.858;13.662;2022-11-04T09:55:20;16.30;;;10.67;;
31906;SDS011;18455;50.858;13.662;2022-11-04T10:00:25;15.27;;;8.20;;
31906;SDS011;18455;50.858;13.662;2022-11-04T10:11:21;15.83;;;11.17;;
31906;SDS011;18455;50.858;13.662;2022-11-04T10:16:17;13.87;;;8.83;;
31906;SDS011;18455;50.858;13.662;2022-11-04T10:26:59;10.50;;;6.97;;
31906;SDS011;18455;50.858;13.662;2022-11-04T10:32:04;11.53;;;6.50;;
31906;SDS011;18455;50.858;13.662;2022-11-04T10:37:13;11.07;;;6.83;;
31906;SDS011;18455;50.858;13.662;2022-11-04T10:42:17;8.17;;;5.90;;
31906;SDS011;18455;50.858;13.662;2022-11-04T10:53:16;9.67;;;6.53;;
31906;SDS011;18455;50.858;13.662;2022-11-04T10:58:22;6.17;;;5.17;;
31906;SDS011;18455;50.858;13.662;2022-11-04T11:03:28;6.70;;;5.20;;
31906;SDS011;18455;50.858;13.662;2022-11-04T11:08:31;6.97;;;4.80;;
31906;SDS011;18455;50.858;13.662;2022-11-04T11:13:34;8.93;;;5.50;;
31906;SDS011;18455;50.858;13.662;2022-11-04T11:18:36;7.40;;;5.30;;
31906;SDS011;18455;50.858;13.662;2022-11-04T11:28:40;7.90;;;5.23;;
31906;SDS011;18455;50.858;13.662;2022-11-04T11:39:01;8.07;;;5.20;;
31906;SDS011;18455;50.858;13.662;2022-11-04T11:49:43;7.17;;;5.33;;
31906;SDS011;18455;50.858;13.662;2022-11-04T11:54:44;7.40;;;5.10;;
31906;SDS011;18455;50.858;13.662;2022-11-04T11:59:57;9.00;;;6.00;;
31906;SDS011;18455;50.858;13.662;2022-11-04T12:05:01;8.43;;;6.33;;
31906;SDS011;18455;50.858;13.662;2022-11-04T12:10:11;7.77;;;6.23;;
31906;SDS011;18455;50.858;13.662;2022-11-04T12:15:46;7.13;;;5.60;;
31906;SDS011;18455;50.858;13.662;2022-11-04T12:21:14;13.70;;;10.13;;
31906;SDS011;18455;50.858;13.662;2022-11-04T12:31:48;14.90;;;8.57;;
31906;SDS011;18455;50.858;13.662;2022-11-04T12:37:32;8.03;;;6.97;;
31906;SDS011;18455;50.858;13.662;2022-11-04T12:48:08;5.60;;;4.90;;
31906;SDS011;18455;50.858;13.662;2022-11-04T13:03:55;4.80;;;4.10;;
31906;SDS011;18455;50.858;13.662;2022-11-04T13:09:10;6.00;;;4.67;;
31906;SDS011;18455;50.858;13.662;2022-11-04T13:19:29;6.87;;;5.70;;
31906;SDS011;18455;50.858;13.662;2022-11-04T13:24:34;8.50;;;7.13;;
31906;SDS011;18455;50.858;13.662;2022-11-04T13:29:36;7.93;;;7.13;;
31906;SDS011;18455;50.858;13.662;2022-11-04T13:40:36;9.73;;;8.50;;
31906;SDS011;18455;50.858;13.662;2022-11-04T13:45:17;8.80;;;7.23;;
31906;SDS011;18455;50.858;13.662;2022-11-04T14:27:40;11.93;;;9.20;;
31906;SDS011;18455;50.858;13.662;2022-11-04T14:32:40;13.27;;;9.57;;
31906;SDS011;18455;50.858;13.662;2022-11-04T14:37:41;17.87;;;10.03;;
31906;SDS011;18455;50.858;13.662;2022-11-04T14:42:43;19.87;;;9.53;;
31906;SDS011;18455;50.858;13.662;2022-11-04T14:47:48;12.27;;;8.37;;
31906;SDS011;18455;50.858;13.662;2022-11-04T14:52:53;13.00;;;8.63;;
31906;SDS011;18455;50.858;13.662;2022-11-04T14:57:56;10.83;;;8.90;;
31906;SDS011;18455;50.858;13.662;2022-11-04T15:13:31;13.67;;;7.30;;
31906;SDS011;18455;50.858;13.662;2022-11-04T15:18:52;11.27;;;8.70;;
31906;SDS011;18455;50.858;13.662;2022-11-04T15:23:54;15.87;;;8.93;;
31906;SDS011;18455;50.858;13.662;2022-11-04T15:28:55;15.47;;;10.63;;
31906;SDS011;18455;50.858;13.662;2022-11-04T15:33:57;18.77;;;11.40;;
31906;SDS011;18455;50.858;13.662;2022-11-04T15:39:07;23.17;;;12.77;;
31906;SDS011;18455;50.858;13.662;2022-11-04T15:44:15;17.13;;;11.90;;
31906;SDS011;18455;50.858;13.662;2022-11-04T15:49:21;17.47;;;11.20;;
31906;SDS011;18455;50.858;13.662;2022-11-04T15:54:27;19.40;;;12.53;;
31906;SDS011;18455;50.858;13.662;2022-11-04T15:59:30;21.30;;;12.33;;
31906;SDS011;18455;50.858;13.662;2022-11-04T16:04:32;22.33;;;12.47;;
31906;SDS011;18455;50.858;13.662;2022-11-04T16:09:43;22.77;;;13.90;;
31906;SDS011;18455;50.858;13.662;2022-11-04T16:14:49;21.70;;;13.70;;
31906;SDS011;18455;50.858;13.662;2022-11-04T16:19:52;20.90;;;12.87;;
31906;SDS011;18455;50.858;13.662;2022-11-04T16:24:55;28.23;;;16.60;;
31906;SDS011;18455;50.858;13.662;2022-11-04T16:30:00;25.03;;;16.53;;
31906;SDS011;18455;50.858;13.662;2022-11-04T16:35:24;25.30;;;14.77;;
31906;SDS011;18455;50.858;13.662;2022-11-04T16:40:26;29.77;;;20.33;;
31906;SDS011;18455;50.858;13.662;2022-11-04T16:50:34;19.50;;;15.07;;
31906;SDS011;18455;50.858;13.662;2022-11-04T16:55:34;28.87;;;19.10;;
31906;SDS011;18455;50.858;13.662;2022-11-04T17:00:35;59.10;;;39.00;;
31906;SDS011;18455;50.858;13.662;2022-11-04T17:05:35;51.17;;;36.37;;
31906;SDS011;18455;50.858;13.662;2022-11-04T17:10:36;16.60;;;12.60;;
31906;SDS011;18455;50.858;13.662;2022-11-04T17:15:36;21.23;;;15.43;;
31906;SDS011;18455;50.858;13.662;2022-11-04T17:20:38;32.70;;;21.13;;
31906;SDS011;18455;50.858;13.662;2022-11-04T17:25:39;28.33;;;21.50;;
31906;SDS011;18455;50.858;13.662;2022-11-04T17:30:40;21.43;;;16.90;;
31906;SDS011;18455;50.858;13.662;2022-11-04T17:35:42;27.23;;;20.57;;
31906;SDS011;18455;50.858;13.662;2022-11-04T17:40:43;18.53;;;12.10;;
31906;SDS011;18455;50.858;13.662;2022-11-04T17:46:02;18.67;;;13.93;;
31906;SDS011;18455;50.858;13.662;2022-11-04T17:51:22;18.53;;;12.63;;
31906;SDS011;18455;50.858;13.662;2022-11-04T17:56:23;18.37;;;12.37;;
31906;SDS011;18455;50.858;13.662;2022-11-04T18:01:24;15.07;;;10.30;;
31906;SDS011;18455;50.858;13.662;2022-11-04T18:06:25;16.17;;;11.20;;
31906;SDS011;18455;50.858;13.662;2022-11-04T18:11:26;17.27;;;10.07;;
31906;SDS011;18455;50.858;13.662;2022-11-04T18:16:47;16.50;;;10.23;;
31906;SDS011;18455;50.858;13.662;2022-11-04T18:21:48;16.53;;;10.73;;
31906;SDS011;18455;50.858;13.662;2022-11-04T18:26:48;43.90;;;26.13;;
31906;SDS011;18455;50.858;13.662;2022-11-04T18:31:49;20.03;;;15.13;;
31906;SDS011;18455;50.858;13.662;2022-11-04T18:36:49;23.43;;;15.90;;
31906;SDS011;18455;50.858;13.662;2022-11-04T18:41:50;37.13;;;26.77;;
31906;SDS011;18455;50.858;13.662;2022-11-04T18:46:50;22.80;;;13.37;;
31906;SDS011;18455;50.858;13.662;2022-11-04T18:51:51;36.67;;;19.33;;
31906;SDS011;18455;50.858;13.662;2022-11-04T18:56:51;31.47;;;19.47;;
31906;SDS011;18455;50.858;13.662;2022-11-04T19:01:51;30.30;;;16.60;;
31906;SDS011;18455;50.858;13.662;2022-11-04T19:06:52;25.00;;;15.90;;
31906;SDS011;18455;50.858;13.662;2022-11-04T19:11:52;26.37;;;15.17;;
31906;SDS011;18455;50.858;13.662;2022-11-04T19:17:12;39.80;;;24.20;;
31906;SDS011;18455;50.858;13.662;2022-11-04T19:22:13;27.83;;;15.90;;
31906;SDS011;18455;50.858;13.662;2022-11-04T19:27:14;27.57;;;15.87;;
31906;SDS011;18455;50.858;13.662;2022-11-04T19:32:16;25.30;;;16.20;;
31906;SDS011;18455;50.858;13.662;2022-11-04T19:37:17;24.10;;;16.33;;
31906;SDS011;18455;50.858;13.662;2022-11-04T19:42:17;30.23;;;18.37;;
31906;SDS011;18455;50.858;13.662;2022-11-04T19:47:36;28.57;;;19.10;;
31906;SDS011;18455;50.858;13.662;2022-11-04T19:52:37;31.90;;;18.10;;
31906;SDS011;18455;50.858;13.662;2022-11-04T19:57:37;29.37;;;18.70;;
31906;SDS011;18455;50.858;13.662;2022-11-04T20:02:38;26.93;;;16.97;;
31906;SDS011;18455;50.858;13.662;2022-11-04T20:07:38;26.57;;;16.63;;
31906;SDS011;18455;50.858;13.662;2022-11-04T20:12:39;29.17;;;17.20;;
31906;SDS011;18455;50.858;13.662;2022-11-04T20:17:58;24.57;;;15.93;;
31906;SDS011;18455;50.858;13.662;2022-11-04T20:22:59;26.63;;;15.70;;
31906;SDS011;18455;50.858;13.662;2022-11-04T20:28:00;25.07;;;15.67;;
31906;SDS011;18455;50.858;13.662;2022-11-04T20:33:01;27.63;;;16.17;;
31906;SDS011;18455;50.858;13.662;2022-11-04T20:38:01;22.53;;;14.53;;
31906;SDS011;18455;50.858;13.662;2022-11-04T20:43:02;22.07;;;14.23;;
31906;SDS011;18455;50.858;13.662;2022-11-04T20:48:03;25.23;;;15.00;;
31906;SDS011;18455;50.858;13.662;2022-11-04T20:53:04;24.93;;;14.00;;
31906;SDS011;18455;50.858;13.662;2022-11-04T20:58:04;22.57;;;13.40;;
31906;SDS011;18455;50.858;13.662;2022-11-04T21:03:05;24.93;;;14.37;;
31906;SDS011;18455;50.858;13.662;2022-11-04T21:08:06;21.83;;;13.67;;
31906;SDS011;18455;50.858;13.662;2022-11-04T21:13:06;21.40;;;14.03;;
31906;SDS011;18455;50.858;13.662;2022-11-04T21:18:07;21.53;;;14.07;;
31906;SDS011;18455;50.858;13.662;2022-11-04T21:23:08;20.27;;;13.50;;
31906;SDS011;18455;50.858;13.662;2022-11-04T21:28:10;21.57;;;14.20;;
31906;SDS011;18455;50.858;13.662;2022-11-04T21:33:11;22.73;;;14.20;;
31906;SDS011;18455;50.858;13.662;2022-11-04T21:38:13;23.30;;;13.77;;
31906;SDS011;18455;50.858;13.662;2022-11-04T21:43:14;26.47;;;14.17;;
31906;SDS011;18455;50.858;13.662;2022-11-04T21:48:14;22.87;;;14.43;;
31906;SDS011;18455;50.858;13.662;2022-11-04T21:53:15;24.33;;;13.97;;
31906;SDS011;18455;50.858;13.662;2022-11-04T21:58:15;22.40;;;13.43;;
31906;SDS011;18455;50.858;13.662;2022-11-04T22:03:15;27.60;;;14.90;;
31906;SDS011;18455;50.858;13.662;2022-11-04T22:08:16;26.63;;;14.23;;
31906;SDS011;18455;50.858;13.662;2022-11-04T22:13:16;24.87;;;15.30;;
31906;SDS011;18455;50.858;13.662;2022-11-04T22:18:17;25.23;;;14.70;;
31906;SDS011;18455;50.858;13.662;2022-11-04T22:23:17;26.37;;;14.30;;
31906;SDS011;18455;50.858;13.662;2022-11-04T22:28:18;29.97;;;16.03;;
31906;SDS011;18455;50.858;13.662;2022-11-04T22:33:18;24.77;;;15.23;;
31906;SDS011;18455;50.858;13.662;2022-11-04T22:38:18;24.30;;;15.87;;
31906;SDS011;18455;50.858;13.662;2022-11-04T22:43:19;28.47;;;14.47;;
31906;SDS011;18455;50.858;13.662;2022-11-04T22:48:20;21.83;;;14.30;;
31906;SDS011;18455;50.858;13.662;2022-11-04T22:53:21;21.93;;;12.37;;
31906;SDS011;18455;50.858;13.662;2022-11-04T22:58:21;24.57;;;14.47;;
31906;SDS011;18455;50.858;13.662;2022-11-04T23:03:22;24.67;;;14.77;;
31906;SDS011;18455;50.858;13.662;2022-11-04T23:08:23;17.20;;;12.60;;
31906;SDS011;18455;50.858;13.662;2022-11-04T23:13:24;17.97;;;12.27;;
31906;SDS011;18455;50.858;13.662;2022-11-04T23:18:48;17.33;;;11.60;;
31906;SDS011;18455;50.858;13.662;2022-11-04T23:23:49;16.53;;;11.40;;
31906;SDS011;18455;50.858;13.662;2022-11-04T23:29:08;15.43;;;11.03;;
31906;SDS011;18455;50.858;13.662;2022-11-04T23:34:27;18.27;;;11.20;;
31906;SDS011;18455;50.858;13.662;2022-11-04T23:39:47;18.17;;;10.90;;
31906;SDS011;18455;50.858;13.662;2022-11-04T23:44:52;18.93;;;13.03;;
31906;SDS011;18455;50.858;13.662;2022-11-04T23:50:12;21.07;;;14.37;;
31906;SDS011;18455;50.858;13.662;2022-11-04T23:55:31;22.77;;;16.20;;
